Time,TemperatureF,DewpointF,PressureIn,WindDirection,WindDirectionDegrees,WindSpeedMPH,WindSpeedGustMPH,Humidity,HourlyPrecipIn,Conditions,Clouds,dailyrainin,SoftwareType,DateUTC
2013-05-29 00:01:00,62.1,59.5,30.18,SW,223,0.0,0.0,91,0.00,,---,0.00,VWS V14.01,2013-05-29 04:01:00,
2013-05-29 00:06:00,61.9,59.2,30.18,SW,223,0.0,0.0,91,0.00,,---,0.00,VWS V14.01,2013-05-29 04:06:00,
2013-05-29 00:11:00,61.8,59.5,30.18,SW,223,0.0,0.0,92,0.00,,---,0.00,VWS V14.01,2013-05-29 04:11:00,
2013-05-29 00:16:00,61.7,59.4,30.18,SW,223,0.0,0.0,92,0.00,,---,0.00,VWS V14.01,2013-05-29 04:16:00,
2013-05-29 00:21:00,61.6,59.3,30.19,SW,223,0.0,0.0,92,0.00,,---,0.00,VWS V14.01,2013-05-29 04:21:00,
2013-05-29 00:26:00,61.4,59.1,30.19,SW,223,0.0,0.0,92,0.00,,---,0.00,VWS V14.01,2013-05-29 04:26:00,
2013-05-29 00:31:00,61.3,59.0,30.18,SW,223,0.0,0.0,92,0.00,,---,0.00,VWS V14.01,2013-05-29 04:31:00,
2013-05-29 00:36:00,61.2,58.9,30.18,SW,223,0.0,0.0,92,0.00,,---,0.00,VWS V14.01,2013-05-29 04:36:00,
2013-05-29 00:41:00,61.1,58.8,30.19,SW,223,0.0,0.0,92,0.00,,---,0.00,VWS V14.01,2013-05-29 04:41:00,
2013-05-29 00:46:00,60.9,58.6,30.19,SW,223,0.0,0.0,92,0.00,,---,0.00,VWS V14.01,2013-05-29 04:46:00,
2013-05-29 00:51:00,60.8,58.8,30.19,SW,223,0.0,0.0,93,0.00,,---,0.00,VWS V14.01,2013-05-29 04:51:00,
2013-05-29 00:56:00,60.7,58.7,30.19,SW,223,0.0,0.0,93,0.00,,---,0.00,VWS V14.01,2013-05-29 04:56:00,
2013-05-29 01:01:00,60.8,59.1,30.19,SW,223,0.0,0.0,94,0.00,,---,0.00,VWS V14.01,2013-05-29 05:01:00,
2013-05-29 01:06:00,60.7,59.0,30.19,SW,223,0.0,0.0,94,0.00,,---,0.00,VWS V14.01,2013-05-29 05:06:00,
2013-05-29 01:11:00,60.7,58.7,30.19,SW,223,0.0,0.0,93,0.00,,---,0.00,VWS V14.01,2013-05-29 05:11:00,
2013-05-29 01:16:00,60.5,58.5,30.19,SW,223,0.0,0.0,93,0.00,,---,0.00,VWS V14.01,2013-05-29 05:16:00,
2013-05-29 01:21:00,60.4,58.4,30.19,SW,223,0.0,0.0,93,0.00,,---,0.00,VWS V14.01,2013-05-29 05:21:00,
2013-05-29 01:26:00,60.3,58.3,30.19,SW,223,0.0,0.0,93,0.00,,---,0.00,VWS V14.01,2013-05-29 05:26:00,
2013-05-29 01:31:00,60.2,58.2,30.19,SW,223,0.0,0.0,93,0.00,,---,0.00,VWS V14.01,2013-05-29 05:31:00,
2013-05-29 01:36:00,60.1,58.1,30.19,SW,223,0.0,0.0,93,0.00,,---,0.00,VWS V14.01,2013-05-29 05:36:00,
2013-05-29 01:41:00,60.0,58.3,30.19,SW,223,0.0,0.0,94,0.00,,---,0.00,VWS V14.01,2013-05-29 05:41:00,
2013-05-29 01:46:00,59.9,58.2,30.18,SW,223,0.0,0.0,94,0.00,,---,0.00,VWS V14.01,2013-05-29 05:46:00,
2013-05-29 01:51:00,59.8,58.1,30.18,SW,223,0.0,0.0,94,0.00,,---,0.00,VWS V14.01,2013-05-29 05:51:00,
2013-05-29 01:56:00,59.7,58.0,30.19,SW,223,0.0,0.0,94,0.00,,---,0.00,VWS V14.01,2013-05-29 05:56:00,
2013-05-29 02:01:00,59.6,57.9,30.19,SW,223,0.0,0.0,94,0.00,,---,0.00,VWS V14.01,2013-05-29 06:01:00,
2013-05-29 02:06:00,59.6,57.9,30.19,SW,223,0.0,0.0,94,0.00,,---,0.00,VWS V14.01,2013-05-29 06:06:00,
2013-05-29 02:11:00,59.5,57.8,30.19,SW,223,0.0,0.0,94,0.00,,---,0.00,VWS V14.01,2013-05-29 06:11:00,
2013-05-29 02:16:00,59.3,57.6,30.19,SW,223,0.0,0.0,94,0.00,,---,0.00,VWS V14.01,2013-05-29 06:16:00,
2013-05-29 02:21:00,59.3,57.6,30.19,SW,223,0.0,0.0,94,0.00,,---,0.00,VWS V14.01,2013-05-29 06:21:00,
2013-05-29 02:25:00,59.3,57.9,30.19,SW,223,0.0,0.0,95,0.00,,---,0.00,VWS V14.01,2013-05-29 06:25:00,
2013-05-29 02:30:00,59.2,57.5,30.19,SW,223,0.0,0.0,94,0.00,,---,0.00,VWS V14.01,2013-05-29 06:30:00,
2013-05-29 02:35:00,59.1,57.4,30.19,SW,223,0.0,0.0,94,0.00,,---,0.00,VWS V14.01,2013-05-29 06:35:00,
2013-05-29 02:40:00,59.1,57.4,30.19,SW,223,0.0,0.0,94,0.00,,---,0.00,VWS V14.01,2013-05-29 06:40:00,
2013-05-29 02:45:00,59.0,57.3,30.20,SW,223,0.0,0.0,94,0.00,,---,0.00,VWS V14.01,2013-05-29 06:45:00,
2013-05-29 02:50:00,58.9,57.2,30.20,SW,223,0.0,0.0,94,0.00,,---,0.00,VWS V14.01,2013-05-29 06:50:00,
2013-05-29 02:55:00,58.8,57.4,30.20,SW,223,0.0,0.0,95,0.00,,---,0.00,VWS V14.01,2013-05-29 06:55:00,
2013-05-29 03:00:00,58.7,57.0,30.20,SW,223,0.0,0.0,94,0.00,,---,0.00,VWS V14.01,2013-05-29 07:00:00,
2013-05-29 03:05:00,58.7,57.3,30.20,SW,223,0.0,0.0,95,0.00,,---,0.00,VWS V14.01,2013-05-29 07:05:00,
2013-05-29 03:10:00,58.7,57.3,30.20,SW,223,0.0,0.0,95,0.00,,---,0.00,VWS V14.01,2013-05-29 07:10:00,
2013-05-29 03:15:00,58.6,57.2,30.20,SW,223,0.0,0.0,95,0.00,,---,0.00,VWS V14.01,2013-05-29 07:15:00,
2013-05-29 03:20:00,58.5,56.8,30.20,SW,223,0.0,0.0,94,0.00,,---,0.00,VWS V14.01,2013-05-29 07:20:00,
2013-05-29 03:25:00,58.5,57.1,30.20,SW,223,0.0,0.0,95,0.00,,---,0.00,VWS V14.01,2013-05-29 07:25:00,
2013-05-29 03:30:00,58.5,57.1,30.20,SW,223,0.0,0.0,95,0.00,,---,0.00,VWS V14.01,2013-05-29 07:30:00,
2013-05-29 03:35:00,58.4,57.0,30.20,SW,223,0.0,0.0,95,0.00,,---,0.00,VWS V14.01,2013-05-29 07:35:00,
2013-05-29 03:40:00,58.4,57.0,30.20,SW,223,0.0,0.0,95,0.00,,---,0.00,VWS V14.01,2013-05-29 07:40:00,
2013-05-29 03:45:00,58.3,56.9,30.20,SW,223,0.0,0.0,95,0.00,,---,0.00,VWS V14.01,2013-05-29 07:45:00,
2013-05-29 03:50:00,58.2,56.8,30.21,SW,223,0.0,0.0,95,0.00,,---,0.00,VWS V14.01,2013-05-29 07:50:00,
2013-05-29 03:55:00,58.3,56.9,30.21,SW,223,0.0,0.0,95,0.00,,---,0.00,VWS V14.01,2013-05-29 07:55:00,
2013-05-29 04:00:00,58.3,56.9,30.21,SW,223,0.0,0.0,95,0.00,,---,0.00,VWS V14.01,2013-05-29 08:00:00,
2013-05-29 04:05:00,58.3,56.9,30.21,SW,223,0.0,0.0,95,0.00,,---,0.00,VWS V14.01,2013-05-29 08:05:00,
2013-05-29 04:10:00,58.2,56.8,30.21,SW,223,0.0,0.0,95,0.00,,---,0.00,VWS V14.01,2013-05-29 08:10:00,
2013-05-29 04:15:00,58.1,56.7,30.21,SW,223,0.0,0.0,95,0.00,,---,0.00,VWS V14.01,2013-05-29 08:15:00,
2013-05-29 04:20:00,58.0,56.6,30.21,SW,223,0.0,0.0,95,0.00,,---,0.00,VWS V14.01,2013-05-29 08:20:00,
2013-05-29 04:25:00,58.0,56.6,30.21,SW,223,0.0,0.0,95,0.00,,---,0.00,VWS V14.01,2013-05-29 08:25:00,
2013-05-29 04:30:00,58.0,56.6,30.21,SW,223,0.0,0.0,95,0.00,,---,0.00,VWS V14.01,2013-05-29 08:30:00,
2013-05-29 04:35:00,57.9,56.5,30.21,SW,223,0.0,0.0,95,0.00,,---,0.00,VWS V14.01,2013-05-29 08:35:00,
2013-05-29 04:40:00,57.8,56.4,30.21,SW,223,0.0,0.0,95,0.00,,---,0.00,VWS V14.01,2013-05-29 08:40:00,
2013-05-29 04:45:00,57.7,56.3,30.21,SW,223,0.0,0.0,95,0.00,,---,0.00,VWS V14.01,2013-05-29 08:45:00,
2013-05-29 04:50:00,57.6,56.2,30.21,SW,223,0.0,0.0,95,0.00,,---,0.00,VWS V14.01,2013-05-29 08:50:00,
2013-05-29 04:55:00,57.5,56.1,30.21,SW,223,0.0,0.0,95,0.00,,---,0.00,VWS V14.01,2013-05-29 08:55:00,
2013-05-29 05:00:00,57.5,56.1,30.21,SW,223,0.0,0.0,95,0.00,,---,0.00,VWS V14.01,2013-05-29 09:00:00,
2013-05-29 05:05:00,57.4,56.0,30.22,SW,223,0.0,0.0,95,0.00,,---,0.00,VWS V14.01,2013-05-29 09:05:00,
2013-05-29 05:10:00,57.3,55.9,30.21,SW,223,0.0,0.0,95,0.00,,---,0.00,VWS V14.01,2013-05-29 09:10:00,
2013-05-29 05:15:00,57.2,55.8,30.21,SW,223,0.0,0.0,95,0.00,,---,0.00,VWS V14.01,2013-05-29 09:15:00,
2013-05-29 05:20:00,57.1,55.7,30.21,SW,223,0.0,0.0,95,0.00,,---,0.00,VWS V14.01,2013-05-29 09:20:00,
2013-05-29 05:25:00,57.1,55.7,30.21,SW,223,0.0,0.0,95,0.00,,---,0.00,VWS V14.01,2013-05-29 09:25:00,
2013-05-29 05:30:00,57.1,55.7,30.21,SW,223,0.0,0.0,95,0.00,,---,0.00,VWS V14.01,2013-05-29 09:30:00,
2013-05-29 05:35:00,56.9,55.5,30.21,SW,223,0.0,0.0,95,0.00,,---,0.00,VWS V14.01,2013-05-29 09:35:00,
2013-05-29 05:40:00,56.9,55.5,30.21,SW,223,0.0,0.0,95,0.00,,---,0.00,VWS V14.01,2013-05-29 09:40:00,
2013-05-29 05:45:00,57.1,56.0,30.21,SW,223,0.0,0.0,96,0.00,,---,0.00,VWS V14.01,2013-05-29 09:45:00,
2013-05-29 05:50:00,57.1,56.0,30.21,SW,223,0.0,0.0,96,0.00,,---,0.00,VWS V14.01,2013-05-29 09:50:00,
2013-05-29 05:55:00,56.9,55.5,30.21,SW,223,0.0,0.0,95,0.00,,---,0.00,VWS V14.01,2013-05-29 09:55:00,
2013-05-29 06:00:00,56.8,55.4,30.21,SW,223,0.0,0.0,95,0.00,,---,0.00,VWS V14.01,2013-05-29 10:00:00,
2013-05-29 06:05:00,56.7,55.3,30.21,WNW,282,0.0,1.0,95,0.00,,---,0.00,VWS V14.01,2013-05-29 10:05:00,
2013-05-29 06:10:00,56.7,55.6,30.21,WNW,282,0.0,1.0,96,0.00,,---,0.00,VWS V14.01,2013-05-29 10:10:00,
2013-05-29 06:15:00,56.6,55.5,30.21,NE,46,0.0,0.0,96,0.00,,---,0.00,VWS V14.01,2013-05-29 10:15:00,
2013-05-29 06:20:00,56.6,55.5,30.22,NE,46,0.0,0.0,96,0.00,,---,0.00,VWS V14.01,2013-05-29 10:20:00,
2013-05-29 06:25:00,56.5,55.4,30.22,SSW,196,0.0,0.0,96,0.00,,---,0.00,VWS V14.01,2013-05-29 10:25:00,
2013-05-29 06:30:00,56.4,55.0,30.22,East,79,0.0,0.0,95,0.00,,---,0.00,VWS V14.01,2013-05-29 10:30:00,
2013-05-29 06:35:00,56.5,55.4,30.22,East,79,0.0,0.0,96,0.00,,---,0.00,VWS V14.01,2013-05-29 10:35:00,
2013-05-29 06:40:00,56.6,55.5,30.22,East,79,0.0,0.0,96,0.00,,---,0.00,VWS V14.01,2013-05-29 10:40:00,
2013-05-29 06:45:00,56.6,55.5,30.22,East,79,0.0,0.0,96,0.00,,---,0.00,VWS V14.01,2013-05-29 10:45:00,
2013-05-29 06:50:00,56.7,55.6,30.22,East,79,0.0,0.0,96,0.00,,---,0.00,VWS V14.01,2013-05-29 10:50:00,
2013-05-29 06:55:00,56.9,55.8,30.22,East,79,0.0,0.0,96,0.00,,---,0.00,VWS V14.01,2013-05-29 10:55:00,
2013-05-29 07:00:00,57.1,56.0,30.22,East,79,0.0,0.0,96,0.00,,---,0.00,VWS V14.01,2013-05-29 11:00:00,
2013-05-29 07:05:00,57.4,56.6,30.22,East,79,0.0,1.0,97,0.00,,---,0.00,VWS V14.01,2013-05-29 11:05:00,
2013-05-29 07:10:00,58.0,57.2,30.22,East,79,0.0,1.0,97,0.00,,---,0.00,VWS V14.01,2013-05-29 11:10:00,
2013-05-29 07:15:00,58.5,57.7,30.22,East,79,0.0,0.0,97,0.00,,---,0.00,VWS V14.01,2013-05-29 11:15:00,
2013-05-29 07:20:00,58.7,57.8,30.22,East,79,0.0,0.0,97,0.00,,---,0.00,VWS V14.01,2013-05-29 11:20:00,
2013-05-29 07:25:00,59.2,58.3,30.22,NW,306,0.0,0.0,97,0.00,,---,0.00,VWS V14.01,2013-05-29 11:25:00,
2013-05-29 07:30:00,59.8,59.0,30.22,NW,306,0.0,0.0,97,0.00,,---,0.00,VWS V14.01,2013-05-29 11:30:00,
2013-05-29 07:35:00,60.5,59.7,30.22,North,360,0.0,0.0,97,0.00,,---,0.00,VWS V14.01,2013-05-29 11:35:00,
2013-05-29 07:40:00,61.3,60.4,30.22,North,360,0.0,0.0,97,0.00,,---,0.00,VWS V14.01,2013-05-29 11:40:00,
2013-05-29 07:45:00,62.2,61.3,30.22,North,355,0.0,0.0,97,0.00,,---,0.00,VWS V14.01,2013-05-29 11:45:00,
2013-05-29 07:50:00,63.0,62.1,30.22,East,98,0.0,0.0,97,0.00,,---,0.00,VWS V14.01,2013-05-29 11:50:00,
2013-05-29 07:55:00,63.7,62.8,30.22,East,98,0.0,0.0,97,0.00,,---,0.00,VWS V14.01,2013-05-29 11:55:00,
2013-05-29 08:00:00,64.3,63.4,30.22,NNW,339,0.0,0.0,97,0.00,,---,0.00,VWS V14.01,2013-05-29 12:00:00,
2013-05-29 08:05:00,64.9,63.7,30.22,SE,133,1.0,2.0,96,0.00,,---,0.00,VWS V14.01,2013-05-29 12:05:00,
2013-05-29 08:10:00,65.5,63.1,30.22,SSE,151,0.0,2.0,92,0.00,,---,0.00,VWS V14.01,2013-05-29 12:10:00,
2013-05-29 08:15:00,66.1,63.1,30.23,SE,141,0.0,1.0,90,0.00,,---,0.00,VWS V14.01,2013-05-29 12:15:00,
2013-05-29 08:20:00,66.8,63.5,30.23,SE,130,0.0,2.0,89,0.00,,---,0.00,VWS V14.01,2013-05-29 12:20:00,
2013-05-29 08:25:00,67.6,64.2,30.23,SE,131,0.0,2.0,89,0.00,,---,0.00,VWS V14.01,2013-05-29 12:25:00,
2013-05-29 08:30:00,68.3,64.3,30.23,South,179,0.0,1.0,87,0.00,,---,0.00,VWS V14.01,2013-05-29 12:30:00,
2013-05-29 08:35:00,68.9,64.2,30.23,ESE,121,1.0,2.0,85,0.00,,---,0.00,VWS V14.01,2013-05-29 12:35:00,
2013-05-29 08:40:00,69.4,64.7,30.23,SSE,167,2.0,2.0,85,0.00,,---,0.00,VWS V14.01,2013-05-29 12:40:00,
2013-05-29 08:45:00,69.9,65.2,30.23,SSE,147,1.0,2.0,85,0.00,,---,0.00,VWS V14.01,2013-05-29 12:45:00,
2013-05-29 08:50:00,70.5,65.1,30.24,NE,36,0.0,2.0,83,0.00,,---,0.00,VWS V14.01,2013-05-29 12:50:00,
2013-05-29 08:55:00,71.3,65.5,30.24,NE,46,0.0,2.0,82,0.00,,---,0.00,VWS V14.01,2013-05-29 12:55:00,
2013-05-29 09:00:00,72.1,65.6,30.24,SSW,195,0.0,0.0,80,0.00,,---,0.00,VWS V14.01,2013-05-29 13:00:00,
2013-05-29 09:05:00,72.6,66.1,30.24,SE,131,5.0,5.0,80,0.00,,---,0.00,VWS V14.01,2013-05-29 13:05:00,
2013-05-29 09:10:00,72.8,66.3,30.24,South,185,0.0,5.0,80,0.00,,---,0.00,VWS V14.01,2013-05-29 13:10:00,
2013-05-29 09:15:00,72.9,65.7,30.24,WSW,252,0.0,0.0,78,0.00,,---,0.00,VWS V14.01,2013-05-29 13:15:00,
2013-05-29 09:20:00,73.6,66.7,30.24,ESE,123,2.0,3.0,79,0.00,,---,0.00,VWS V14.01,2013-05-29 13:20:00,
2013-05-29 09:25:00,74.0,66.3,30.24,South,180,0.0,3.0,77,0.00,,---,0.00,VWS V14.01,2013-05-29 13:25:00,
2013-05-29 09:30:00,74.5,66.8,30.24,South,181,2.0,3.0,77,0.00,,---,0.00,VWS V14.01,2013-05-29 13:30:00,
2013-05-29 09:35:00,75.2,66.3,30.24,SSW,208,0.0,5.0,74,0.00,,---,0.00,VWS V14.01,2013-05-29 13:35:00,
2013-05-29 09:40:00,75.6,65.9,30.24,South,179,3.0,5.0,72,0.00,,---,0.00,VWS V14.01,2013-05-29 13:40:00,
2013-05-29 09:45:00,76.1,66.0,30.24,West,265,0.0,5.0,71,0.00,,---,0.00,VWS V14.01,2013-05-29 13:45:00,
2013-05-29 09:50:00,76.4,65.9,30.24,SSE,152,2.0,5.0,70,0.00,,---,0.00,VWS V14.01,2013-05-29 13:50:00,
2013-05-29 09:55:00,76.9,66.4,30.24,SSE,164,4.0,8.0,70,0.00,,---,0.00,VWS V14.01,2013-05-29 13:55:00,
2013-05-29 10:00:00,77.1,66.2,30.24,South,175,2.0,2.0,69,0.00,,---,0.00,VWS V14.01,2013-05-29 14:00:00,
2013-05-29 10:05:00,77.1,66.2,30.24,SE,135,5.0,5.0,69,0.00,,---,0.00,VWS V14.01,2013-05-29 14:05:00,
2013-05-29 10:10:00,77.4,66.4,30.24,NNE,14,0.0,6.0,69,0.00,,---,0.00,VWS V14.01,2013-05-29 14:10:00,
2013-05-29 10:15:00,77.7,66.7,30.24,South,171,1.0,3.0,69,0.00,,---,0.00,VWS V14.01,2013-05-29 14:15:00,
2013-05-29 10:20:00,77.9,66.9,30.24,SSE,148,3.0,6.0,69,0.00,,---,0.00,VWS V14.01,2013-05-29 14:20:00,
2013-05-29 10:25:00,78.0,66.6,30.23,SSE,156,2.0,6.0,68,0.00,,---,0.00,VWS V14.01,2013-05-29 14:25:00,
2013-05-29 10:30:00,78.1,66.7,30.23,SE,137,2.0,6.0,68,0.00,,---,0.00,VWS V14.01,2013-05-29 14:30:00,
2013-05-29 10:35:00,78.2,66.4,30.23,SW,236,2.0,6.0,67,0.00,,---,0.00,VWS V14.01,2013-05-29 14:35:00,
2013-05-29 10:40:00,78.4,67.4,30.23,SE,140,2.0,6.0,69,0.00,,---,0.00,VWS V14.01,2013-05-29 14:40:00,
2013-05-29 10:45:00,78.6,66.7,30.23,South,171,3.0,4.0,67,0.00,,---,0.00,VWS V14.01,2013-05-29 14:45:00,
2013-05-29 10:50:00,78.7,67.3,30.23,South,169,2.0,4.0,68,0.00,,---,0.00,VWS V14.01,2013-05-29 14:50:00,
2013-05-29 10:55:00,78.9,67.4,30.23,SSE,164,4.0,7.0,68,0.00,,---,0.00,VWS V14.01,2013-05-29 14:55:00,
2013-05-29 11:00:00,79.2,67.3,30.23,SSW,209,2.0,3.0,67,0.00,,---,0.00,VWS V14.01,2013-05-29 15:00:00,
2013-05-29 11:05:00,79.5,67.6,30.23,South,177,2.0,8.0,67,0.00,,---,0.00,VWS V14.01,2013-05-29 15:05:00,
2013-05-29 11:10:00,80.0,66.3,30.23,South,191,3.0,8.0,63,0.00,,---,0.00,VWS V14.01,2013-05-29 15:10:00,
2013-05-29 11:15:00,80.3,67.9,30.23,ESE,117,2.0,6.0,66,0.00,,---,0.00,VWS V14.01,2013-05-29 15:15:00,
2013-05-29 11:20:00,80.5,69.0,30.23,SE,144,4.0,7.0,68,0.00,,---,0.00,VWS V14.01,2013-05-29 15:20:00,
2013-05-29 11:25:00,80.9,66.7,30.23,WSW,256,1.0,9.0,62,0.00,,---,0.00,VWS V14.01,2013-05-29 15:25:00,
2013-05-29 11:30:00,80.8,66.1,30.23,SSW,195,1.0,1.0,61,0.00,,---,0.00,VWS V14.01,2013-05-29 15:30:00,
2013-05-29 11:35:00,81.3,67.5,30.23,SSW,192,2.0,6.0,63,0.00,,---,0.00,VWS V14.01,2013-05-29 15:35:00,
2013-05-29 11:40:00,81.8,66.1,30.23,South,174,1.0,6.0,59,0.00,,---,0.00,VWS V14.01,2013-05-29 15:40:00,
2013-05-29 11:45:00,81.6,66.9,30.23,WNW,283,5.0,5.0,61,0.00,,---,0.00,VWS V14.01,2013-05-29 15:45:00,
2013-05-29 11:50:00,81.9,65.7,30.23,South,171,6.0,6.0,58,0.00,,---,0.00,VWS V14.01,2013-05-29 15:50:00,
2013-05-29 11:55:00,82.0,66.3,30.23,West,265,0.0,6.0,59,0.00,,---,0.00,VWS V14.01,2013-05-29 15:55:00,
2013-05-29 12:00:00,82.5,65.2,30.23,South,185,7.0,7.0,56,0.00,,---,0.00,VWS V14.01,2013-05-29 16:00:00,
2013-05-29 12:05:00,82.6,66.3,30.22,West,268,2.0,7.0,58,0.00,,---,0.00,VWS V14.01,2013-05-29 16:05:00,
2013-05-29 12:10:00,82.8,65.5,30.22,South,179,5.0,7.0,56,0.00,,---,0.00,VWS V14.01,2013-05-29 16:10:00,
2013-05-29 12:15:00,83.0,66.7,30.22,ESE,121,2.0,5.0,58,0.00,,---,0.00,VWS V14.01,2013-05-29 16:15:00,
2013-05-29 12:20:00,83.6,65.2,30.22,South,177,0.0,6.0,54,0.00,,---,0.00,VWS V14.01,2013-05-29 16:20:00,
2013-05-29 12:25:00,83.7,64.8,30.22,South,185,2.0,9.0,53,0.00,,---,0.00,VWS V14.01,2013-05-29 16:25:00,
2013-05-29 12:30:00,83.6,65.2,30.22,SSW,201,0.0,3.0,54,0.00,,---,0.00,VWS V14.01,2013-05-29 16:30:00,
2013-05-29 12:35:00,83.5,65.7,30.22,NW,306,4.0,8.0,55,0.00,,---,0.00,VWS V14.01,2013-05-29 16:35:00,
2013-05-29 12:40:00,83.3,66.5,30.22,South,177,3.0,8.0,57,0.00,,---,0.00,VWS V14.01,2013-05-29 16:40:00,
2013-05-29 12:45:00,83.8,64.3,30.21,SE,137,1.0,3.0,52,0.00,,---,0.00,VWS V14.01,2013-05-29 16:45:00,
2013-05-29 12:50:00,84.1,64.6,30.21,SW,235,0.0,3.0,52,0.00,,---,0.00,VWS V14.01,2013-05-29 16:50:00,
2013-05-29 12:55:00,84.6,62.8,30.21,WNW,289,3.0,5.0,48,0.00,,---,0.00,VWS V14.01,2013-05-29 16:55:00,
2013-05-29 13:00:00,84.8,64.1,30.21,SSW,201,3.0,3.0,50,0.00,,---,0.00,VWS V14.01,2013-05-29 17:00:00,
2013-05-29 13:05:00,85.2,62.7,30.21,SSW,194,0.0,5.0,47,0.00,,---,0.00,VWS V14.01,2013-05-29 17:05:00,
2013-05-29 13:10:00,85.6,64.8,30.21,SE,137,2.0,5.0,50,0.00,,---,0.00,VWS V14.01,2013-05-29 17:10:00,
2013-05-29 13:15:00,85.4,63.5,30.21,SE,143,1.0,1.0,48,0.00,,---,0.00,VWS V14.01,2013-05-29 17:15:00,
2013-05-29 13:20:00,84.7,65.1,30.21,South,171,2.0,5.0,52,0.00,,---,0.00,VWS V14.01,2013-05-29 17:20:00,
2013-05-29 13:25:00,84.9,65.3,30.20,SE,145,0.0,5.0,52,0.00,,---,0.00,VWS V14.01,2013-05-29 17:25:00,
2013-05-29 13:30:00,85.5,65.9,30.20,SW,218,1.0,1.0,52,0.00,,---,0.00,VWS V14.01,2013-05-29 17:30:00,
2013-05-29 13:35:00,85.5,64.2,30.20,West,270,1.0,3.0,49,0.00,,---,0.00,VWS V14.01,2013-05-29 17:35:00,
2013-05-29 13:40:00,85.6,66.0,30.20,SSE,164,4.0,9.0,52,0.00,,---,0.00,VWS V14.01,2013-05-29 17:40:00,
2013-05-29 13:45:00,85.6,64.3,30.20,SE,128,1.0,2.0,49,0.00,,---,0.00,VWS V14.01,2013-05-29 17:45:00,
2013-05-29 13:50:00,85.5,64.2,30.20,South,181,4.0,9.0,49,0.00,,---,0.00,VWS V14.01,2013-05-29 17:50:00,
2013-05-29 13:55:00,85.5,65.3,30.20,South,185,6.0,9.0,51,0.00,,---,0.00,VWS V14.01,2013-05-29 17:55:00,
2013-05-29 14:00:00,85.6,67.1,30.20,SSE,150,3.0,6.0,54,0.00,,---,0.00,VWS V14.01,2013-05-29 18:00:00,
2013-05-29 14:05:00,85.2,66.7,30.20,SE,144,4.0,8.0,54,0.00,,---,0.00,VWS V14.01,2013-05-29 18:05:00,
2013-05-29 14:10:00,85.0,65.4,30.20,South,189,3.0,9.0,52,0.00,,---,0.00,VWS V14.01,2013-05-29 18:10:00,
2013-05-29 14:15:00,84.9,65.9,30.20,ESE,111,4.0,6.0,53,0.00,,---,0.00,VWS V14.01,2013-05-29 18:15:00,
2013-05-29 14:20:00,84.9,65.9,30.20,SE,142,6.0,6.0,53,0.00,,---,0.00,VWS V14.01,2013-05-29 18:20:00,
2013-05-29 14:25:00,85.2,65.6,30.20,ESE,115,3.0,9.0,52,0.00,,---,0.00,VWS V14.01,2013-05-29 18:25:00,
2013-05-29 14:30:00,85.0,65.4,30.20,ESE,116,1.0,3.0,52,0.00,,---,0.00,VWS V14.01,2013-05-29 18:30:00,
2013-05-29 14:35:00,84.7,65.7,30.20,SSW,194,3.0,7.0,53,0.00,,---,0.00,VWS V14.01,2013-05-29 18:35:00,
2013-05-29 14:40:00,85.0,66.5,30.20,SE,141,2.0,7.0,54,0.00,,---,0.00,VWS V14.01,2013-05-29 18:40:00,
2013-05-29 14:45:00,85.3,66.8,30.20,ESE,122,3.0,3.0,54,0.00,,---,0.00,VWS V14.01,2013-05-29 18:45:00,
2013-05-29 14:50:00,85.5,66.4,30.20,SSE,151,7.0,7.0,53,0.00,,---,0.00,VWS V14.01,2013-05-29 18:50:00,
2013-05-29 14:55:00,84.9,64.8,30.20,WSW,244,1.0,7.0,51,0.00,,---,0.00,VWS V14.01,2013-05-29 18:55:00,
2013-05-29 15:00:00,84.7,67.3,30.19,SSW,210,0.0,0.0,56,0.00,,---,0.00,VWS V14.01,2013-05-29 19:00:00,
2013-05-29 15:05:00,85.4,65.8,30.20,ESE,117,0.0,5.0,52,0.00,,---,0.00,VWS V14.01,2013-05-29 19:05:00,
2013-05-29 15:10:00,85.7,67.2,30.19,SE,135,2.0,6.0,54,0.00,,---,0.00,VWS V14.01,2013-05-29 19:10:00,
2013-05-29 15:15:00,85.9,66.8,30.19,SE,125,5.0,5.0,53,0.00,,---,0.00,VWS V14.01,2013-05-29 19:15:00,
2013-05-29 15:20:00,85.9,66.8,30.19,SE,137,3.0,8.0,53,0.00,,---,0.00,VWS V14.01,2013-05-29 19:20:00,
2013-05-29 15:25:00,85.8,68.8,30.19,SSE,160,5.0,8.0,57,0.00,,---,0.00,VWS V14.01,2013-05-29 19:25:00,
2013-05-29 15:30:00,85.8,67.2,30.19,SSE,151,2.0,4.0,54,0.00,,---,0.00,VWS V14.01,2013-05-29 19:30:00,
2013-05-29 15:35:00,85.7,67.7,30.18,ESE,102,3.0,6.0,55,0.00,,---,0.00,VWS V14.01,2013-05-29 19:35:00,
2013-05-29 15:40:00,85.9,67.3,30.18,South,181,3.0,7.0,54,0.00,,---,0.00,VWS V14.01,2013-05-29 19:40:00,
2013-05-29 15:45:00,85.9,66.8,30.18,SE,126,1.0,2.0,53,0.00,,---,0.00,VWS V14.01,2013-05-29 19:45:00,
2013-05-29 15:50:00,86.0,66.3,30.18,South,171,7.0,10.0,52,0.00,,---,0.00,VWS V14.01,2013-05-29 19:50:00,
2013-05-29 15:55:00,85.5,66.4,30.18,SSE,160,5.0,10.0,53,0.00,,---,0.00,VWS V14.01,2013-05-29 19:55:00,
2013-05-29 16:00:00,85.2,65.6,30.18,SE,132,2.0,2.0,52,0.00,,---,0.00,VWS V14.01,2013-05-29 20:00:00,
2013-05-29 16:05:00,85.2,64.5,30.18,SSE,160,4.0,7.0,50,0.00,,---,0.00,VWS V14.01,2013-05-29 20:05:00,
2013-05-29 16:10:00,85.3,65.1,30.18,SE,126,3.0,8.0,51,0.00,,---,0.00,VWS V14.01,2013-05-29 20:10:00,
2013-05-29 16:15:00,85.4,66.3,30.18,ESE,116,2.0,2.0,53,0.00,,---,0.00,VWS V14.01,2013-05-29 20:15:00,
2013-05-29 16:20:00,85.4,65.8,30.17,SSE,152,7.0,9.0,52,0.00,,---,0.00,VWS V14.01,2013-05-29 20:20:00,
2013-05-29 16:25:00,85.4,66.3,30.17,East,90,5.0,7.0,53,0.00,,---,0.00,VWS V14.01,2013-05-29 20:25:00,
2013-05-29 16:30:00,85.5,67.5,30.17,South,189,7.0,7.0,55,0.00,,---,0.00,VWS V14.01,2013-05-29 20:30:00,
2013-05-29 16:35:00,85.4,66.3,30.17,SSW,208,2.0,10.0,53,0.00,,---,0.00,VWS V14.01,2013-05-29 20:35:00,
2013-05-29 16:40:00,85.5,65.9,30.17,SE,127,5.0,10.0,52,0.00,,---,0.00,VWS V14.01,2013-05-29 20:40:00,
2013-05-29 16:45:00,85.5,65.9,30.17,SSE,164,0.0,0.0,52,0.00,,---,0.00,VWS V14.01,2013-05-29 20:45:00,
2013-05-29 16:50:00,85.5,66.4,30.16,ESE,123,2.0,7.0,53,0.00,,---,0.00,VWS V14.01,2013-05-29 20:50:00,
2013-05-29 16:55:00,85.7,64.9,30.16,SSE,152,3.0,7.0,50,0.00,,---,0.00,VWS V14.01,2013-05-29 20:55:00,
2013-05-29 17:00:00,85.4,66.3,30.16,South,171,5.0,5.0,53,0.00,,---,0.00,VWS V14.01,2013-05-29 21:00:00,
2013-05-29 17:05:00,85.4,65.8,30.16,SE,129,3.0,7.0,52,0.00,,---,0.00,VWS V14.01,2013-05-29 21:05:00,
2013-05-29 17:10:00,85.3,64.6,30.16,SE,139,2.0,8.0,50,0.00,,---,0.00,VWS V14.01,2013-05-29 21:10:00,
2013-05-29 17:15:00,85.2,65.1,30.16,SSE,151,2.0,2.0,51,0.00,,---,0.00,VWS V14.01,2013-05-29 21:15:00,
2013-05-29 17:20:00,85.1,65.0,30.16,South,177,6.0,9.0,51,0.00,,---,0.00,VWS V14.01,2013-05-29 21:20:00,
2013-05-29 17:25:00,84.8,65.8,30.16,SE,133,7.0,11.0,53,0.00,,---,0.00,VWS V14.01,2013-05-29 21:25:00,
2013-05-29 17:30:00,84.7,65.7,30.16,ESE,115,4.0,6.0,53,0.00,,---,0.00,VWS V14.01,2013-05-29 21:30:00,
2013-05-29 17:35:00,84.8,64.7,30.16,South,188,3.0,7.0,51,0.00,,---,0.00,VWS V14.01,2013-05-29 21:35:00,
2013-05-29 17:40:00,84.7,65.1,30.16,SE,135,7.0,9.0,52,0.00,,---,0.00,VWS V14.01,2013-05-29 21:40:00,
2013-05-29 17:45:00,84.7,66.2,30.16,SSE,167,5.0,5.0,54,0.00,,---,0.00,VWS V14.01,2013-05-29 21:45:00,
2013-05-29 17:50:00,84.6,65.6,30.16,ESE,123,7.0,10.0,53,0.00,,---,0.00,VWS V14.01,2013-05-29 21:50:00,
2013-05-29 17:55:00,84.6,65.6,30.16,SSE,154,3.0,10.0,53,0.00,,---,0.00,VWS V14.01,2013-05-29 21:55:00,
2013-05-29 18:00:00,84.5,65.5,30.16,SSE,159,3.0,10.0,53,0.00,,---,0.00,VWS V14.01,2013-05-29 22:00:00,
2013-05-29 18:05:00,84.4,65.9,30.17,SSE,150,1.0,7.0,54,0.00,,---,0.00,VWS V14.01,2013-05-29 22:05:00,
2013-05-29 18:10:00,84.4,65.9,30.17,SSW,200,5.0,7.0,54,0.00,,---,0.00,VWS V14.01,2013-05-29 22:10:00,
2013-05-29 18:15:00,84.4,66.5,30.17,SE,130,2.0,2.0,55,0.00,,---,0.00,VWS V14.01,2013-05-29 22:15:00,
2013-05-29 18:20:00,84.2,65.8,30.17,SSE,168,1.0,6.0,54,0.00,,---,0.00,VWS V14.01,2013-05-29 22:20:00,
2013-05-29 18:25:00,84.1,65.1,30.17,South,189,2.0,7.0,53,0.00,,---,0.00,VWS V14.01,2013-05-29 22:25:00,
2013-05-29 18:30:00,83.9,64.9,30.17,SSE,152,7.0,7.0,53,0.00,,---,0.00,VWS V14.01,2013-05-29 22:30:00,
2013-05-29 18:35:00,83.8,65.4,30.17,SE,146,4.0,7.0,54,0.00,,---,0.00,VWS V14.01,2013-05-29 22:35:00,
2013-05-29 18:40:00,83.8,65.9,30.17,SSE,162,1.0,7.0,55,0.00,,---,0.00,VWS V14.01,2013-05-29 22:40:00,
2013-05-29 18:45:00,83.8,64.9,30.17,South,180,6.0,8.0,53,0.00,,---,0.00,VWS V14.01,2013-05-29 22:45:00,
2013-05-29 18:50:00,83.6,65.7,30.17,SSE,155,4.0,7.0,55,0.00,,---,0.00,VWS V14.01,2013-05-29 22:50:00,
2013-05-29 18:55:00,83.4,65.0,30.17,SE,136,0.0,7.0,54,0.00,,---,0.00,VWS V14.01,2013-05-29 22:55:00,
2013-05-29 19:00:00,83.4,65.0,30.17,SSE,156,3.0,7.0,54,0.00,,---,0.00,VWS V14.01,2013-05-29 23:00:00,
2013-05-29 19:05:00,83.3,64.9,30.17,South,188,3.0,5.0,54,0.00,,---,0.00,VWS V14.01,2013-05-29 23:05:00,
2013-05-29 19:10:00,83.1,64.8,30.17,SSE,166,2.0,7.0,54,0.00,,---,0.00,VWS V14.01,2013-05-29 23:10:00,
2013-05-29 19:15:00,82.8,64.5,30.17,SSW,196,1.0,8.0,54,0.00,,---,0.00,VWS V14.01,2013-05-29 23:15:00,
2013-05-29 19:20:00,82.7,64.4,30.17,SSE,165,1.0,5.0,54,0.00,,---,0.00,VWS V14.01,2013-05-29 23:20:00,
2013-05-29 19:25:00,82.5,64.2,30.17,SSE,167,0.0,5.0,54,0.00,,---,0.00,VWS V14.01,2013-05-29 23:25:00,
2013-05-29 19:30:00,82.3,64.5,30.17,SE,135,3.0,5.0,55,0.00,,---,0.00,VWS V14.01,2013-05-29 23:30:00,
2013-05-29 19:35:00,82.1,64.3,30.17,SSE,152,1.0,4.0,55,0.00,,---,0.00,VWS V14.01,2013-05-29 23:35:00,
2013-05-29 19:40:00,81.9,64.2,30.17,SSE,149,1.0,4.0,55,0.00,,---,0.00,VWS V14.01,2013-05-29 23:40:00,
2013-05-29 19:45:00,81.5,64.3,30.17,SSE,157,0.0,4.0,56,0.00,,---,0.00,VWS V14.01,2013-05-29 23:45:00,
2013-05-29 19:50:00,81.1,63.9,30.17,South,188,0.0,2.0,56,0.00,,---,0.00,VWS V14.01,2013-05-29 23:50:00,
2013-05-29 19:55:00,80.6,64.0,30.17,SSE,164,0.0,3.0,57,0.00,,---,0.00,VWS V14.01,2013-05-29 23:55:00,
2013-05-29 20:00:00,80.2,64.1,30.17,WSW,258,1.0,4.0,58,0.00,,---,0.00,VWS V14.01,2013-05-30 00:00:00,
2013-05-29 20:05:00,79.8,63.7,30.18,SSE,167,2.0,2.0,58,0.00,,---,0.00,VWS V14.01,2013-05-30 00:05:00,
2013-05-29 20:10:00,79.5,63.9,30.18,SSE,167,0.0,2.0,59,0.00,,---,0.00,VWS V14.01,2013-05-30 00:10:00,
2013-05-29 20:14:00,79.1,64.0,30.18,South,181,0.0,2.0,60,0.00,,---,0.00,VWS V14.01,2013-05-30 00:14:00,
2013-05-29 20:19:00,78.6,64.0,30.18,SW,225,0.0,1.0,61,0.00,,---,0.00,VWS V14.01,2013-05-30 00:19:00,
2013-05-29 20:24:00,78.0,64.4,30.18,SW,225,0.0,1.0,63,0.00,,---,0.00,VWS V14.01,2013-05-30 00:24:00,
2013-05-29 20:29:00,76.9,65.5,30.18,SW,225,0.0,1.0,68,0.00,,---,0.00,VWS V14.01,2013-05-30 00:29:00,
2013-05-29 20:34:00,75.8,65.3,30.18,SW,225,0.0,0.0,70,0.00,,---,0.00,VWS V14.01,2013-05-30 00:34:00,
2013-05-29 20:39:00,74.8,65.2,30.18,SW,225,0.0,0.0,72,0.00,,---,0.00,VWS V14.01,2013-05-30 00:39:00,
2013-05-29 20:44:00,74.0,64.8,30.18,SW,225,0.0,0.0,73,0.00,,---,0.00,VWS V14.01,2013-05-30 00:44:00,
2013-05-29 20:49:00,73.2,64.8,30.18,SW,225,0.0,0.0,75,0.00,,---,0.00,VWS V14.01,2013-05-30 00:49:00,
2013-05-29 20:54:00,72.4,64.8,30.19,SW,225,0.0,0.0,77,0.00,,---,0.00,VWS V14.01,2013-05-30 00:54:00,
2013-05-29 20:59:00,72.0,64.4,30.19,SW,225,0.0,0.0,77,0.00,,---,0.00,VWS V14.01,2013-05-30 00:59:00,
2013-05-29 21:04:00,71.6,64.4,30.19,SW,225,0.0,0.0,78,0.00,,---,0.00,VWS V14.01,2013-05-30 01:04:00,
2013-05-29 21:09:00,71.2,64.7,30.19,SW,225,0.0,0.0,80,0.00,,---,0.00,VWS V14.01,2013-05-30 01:09:00,
2013-05-29 21:14:00,70.6,64.5,30.19,SW,225,0.0,0.0,81,0.00,,---,0.00,VWS V14.01,2013-05-30 01:14:00,
2013-05-29 21:19:00,70.1,64.4,30.19,SW,225,0.0,0.0,82,0.00,,---,0.00,VWS V14.01,2013-05-30 01:19:00,
2013-05-29 21:24:00,69.7,64.0,30.19,SW,225,0.0,0.0,82,0.00,,---,0.00,VWS V14.01,2013-05-30 01:24:00,
2013-05-29 21:29:00,69.3,63.6,30.19,SW,225,0.0,0.0,82,0.00,,---,0.00,VWS V14.01,2013-05-30 01:29:00,
2013-05-29 21:34:00,69.0,63.6,30.19,SW,225,0.0,0.0,83,0.00,,---,0.00,VWS V14.01,2013-05-30 01:34:00,
2013-05-29 21:39:00,68.7,63.7,30.19,SW,225,0.0,0.0,84,0.00,,---,0.00,VWS V14.01,2013-05-30 01:39:00,
2013-05-29 21:44:00,68.5,63.5,30.19,SW,225,0.0,0.0,84,0.00,,---,0.00,VWS V14.01,2013-05-30 01:44:00,
2013-05-29 21:49:00,68.2,63.5,30.20,SW,225,0.0,0.0,85,0.00,,---,0.00,VWS V14.01,2013-05-30 01:49:00,
2013-05-29 21:54:00,68.0,63.3,30.20,SW,225,0.0,0.0,85,0.00,,---,0.00,VWS V14.01,2013-05-30 01:54:00,
2013-05-29 21:59:00,67.7,63.4,30.20,SW,225,0.0,0.0,86,0.00,,---,0.00,VWS V14.01,2013-05-30 01:59:00,
2013-05-29 22:04:00,67.4,63.1,30.20,SW,225,0.0,0.0,86,0.00,,---,0.00,VWS V14.01,2013-05-30 02:04:00,
2013-05-29 22:09:00,67.2,63.2,30.20,SW,225,0.0,0.0,87,0.00,,---,0.00,VWS V14.01,2013-05-30 02:09:00,
2013-05-29 22:14:00,66.9,62.9,30.20,SW,225,0.0,0.0,87,0.00,,---,0.00,VWS V14.01,2013-05-30 02:14:00,
2013-05-29 22:19:00,66.8,62.8,30.20,SW,225,0.0,0.0,87,0.00,,---,0.00,VWS V14.01,2013-05-30 02:19:00,
2013-05-29 22:24:00,66.6,62.6,30.21,SW,225,0.0,0.0,87,0.00,,---,0.00,VWS V14.01,2013-05-30 02:24:00,
2013-05-29 22:29:00,66.4,62.7,30.21,SW,225,0.0,0.0,88,0.00,,---,0.00,VWS V14.01,2013-05-30 02:29:00,
2013-05-29 22:34:00,66.2,62.5,30.21,SW,225,0.0,0.0,88,0.00,,---,0.00,VWS V14.01,2013-05-30 02:34:00,
2013-05-29 22:39:00,66.0,62.7,30.21,SW,225,0.0,0.0,89,0.00,,---,0.00,VWS V14.01,2013-05-30 02:39:00,
2013-05-29 22:44:00,65.7,62.4,30.21,SW,225,0.0,0.0,89,0.00,,---,0.00,VWS V14.01,2013-05-30 02:44:00,
2013-05-29 22:49:00,65.6,62.3,30.21,SW,225,0.0,0.0,89,0.00,,---,0.00,VWS V14.01,2013-05-30 02:49:00,
2013-05-29 22:54:00,65.4,62.1,30.22,SW,225,0.0,0.0,89,0.00,,---,0.00,VWS V14.01,2013-05-30 02:54:00,
2013-05-29 22:59:00,65.2,61.9,30.21,SW,225,0.0,0.0,89,0.00,,---,0.00,VWS V14.01,2013-05-30 02:59:00,
2013-05-29 23:04:00,65.0,62.0,30.21,SW,225,0.0,0.0,90,0.00,,---,0.00,VWS V14.01,2013-05-30 03:04:00,
2013-05-29 23:09:00,64.8,61.8,30.22,SW,225,0.0,0.0,90,0.00,,---,0.00,VWS V14.01,2013-05-30 03:09:00,
2013-05-29 23:14:00,64.6,61.6,30.22,SW,225,0.0,0.0,90,0.00,,---,0.00,VWS V14.01,2013-05-30 03:14:00,
2013-05-29 23:19:00,64.5,61.5,30.22,SW,225,0.0,0.0,90,0.00,,---,0.00,VWS V14.01,2013-05-30 03:19:00,
2013-05-29 23:24:00,64.3,61.6,30.22,SW,225,0.0,0.0,91,0.00,,---,0.00,VWS V14.01,2013-05-30 03:24:00,
2013-05-29 23:29:00,64.1,61.4,30.22,SW,225,0.0,0.0,91,0.00,,---,0.00,VWS V14.01,2013-05-30 03:29:00,
2013-05-29 23:34:00,64.0,61.3,30.22,SW,225,0.0,0.0,91,0.00,,---,0.00,VWS V14.01,2013-05-30 03:34:00,
2013-05-29 23:39:00,63.8,61.1,30.22,SW,227,0.0,0.0,91,0.00,,---,0.00,VWS V14.01,2013-05-30 03:39:00,
2013-05-29 23:44:00,63.7,61.3,30.22,SW,227,0.0,0.0,92,0.00,,---,0.00,VWS V14.01,2013-05-30 03:44:00,
2013-05-29 23:49:00,63.5,61.1,30.22,SW,227,0.0,0.0,92,0.00,,---,0.00,VWS V14.01,2013-05-30 03:49:00,
2013-05-29 23:54:00,63.5,61.1,30.22,SW,227,0.0,0.0,92,0.00,,---,0.00,VWS V14.01,2013-05-30 03:54:00,
2013-05-29 23:59:00,63.4,61.0,30.22,WNW,292,0.0,2.0,92,0.00,,---,0.00,VWS V14.01,2013-05-30 03:59:00,